Time;durP1;ratioP1;P1;durP2;ratioP2;P2;SDS_P1;SDS_P2;PMS_P1;PMS_P2;Temp;Humidity;BMP_temperature;BMP_pressure;BME280_temperature;BME280_humidity;BME280_pressure;Samples;Min_cycle;Max_cycle;Signal;HPM_P1;HPM_P2
2022/01/21 00:01:27;;;;;;;12.15;5.60;;;;;;;3.07;57.01;100065.53;4378224;32;33556;-55
2022/01/21 00:03:56;;;;;;;15.05;6.28;;;;;;;3.21;56.79;100065.16;4378869;32;33517;-55
2022/01/21 00:06:23;;;;;;;11.23;5.35;;;;;;;3.29;56.65;100066.66;4377576;32;34356;-55
2022/01/21 00:08:54;;;;;;;12.93;5.25;;;;;;;3.23;57.07;100056.38;4378847;32;34765;-55
2022/01/21 00:11:23;;;;;;;11.73;5.28;;;;;;;3.24;57.41;100063.31;4379123;32;33541;-55
2022/01/21 00:13:53;;;;;;;15.50;4.90;;;;;;;3.22;57.04;100062.50;4377507;32;34690;-55
2022/01/21 00:16:23;;;;;;;12.25;4.82;;;;;;;3.12;56.20;100074.06;4378850;32;34632;-55
2022/01/21 00:18:59;;;;;;;9.05;4.10;;;;;;;3.14;55.68;100072.28;4377217;32;34856;-55
2022/01/21 00:32:35;;;;;;;8.73;2.67;;;;;;;2.70;54.66;100077.75;4392513;32;33227;-55
2022/01/21 00:35:04;;;;;;;10.10;3.17;;;;;;;3.00;53.87;100083.06;4392855;32;33977;-54
2022/01/21 00:37:31;;;;;;;8.60;3.22;;;;;;;2.74;54.86;100061.13;4393413;32;35153;-55
2022/01/21 00:40:00;;;;;;;6.75;2.50;;;;;;;2.51;54.97;100059.09;4389656;32;34302;-55
2022/01/21 00:44:59;;;;;;;9.95;3.30;;;;;;;2.91;54.16;100058.09;4376868;32;33739;-55
2022/01/21 00:47:28;;;;;;;10.07;3.78;;;;;;;2.77;54.26;100062.78;4378337;32;34218;-55
2022/01/21 00:49:56;;;;;;;11.07;4.00;;;;;;;2.93;53.62;100058.06;4377487;32;34570;-55
2022/01/21 00:52:24;;;;;;;10.07;3.55;;;;;;;2.92;54.30;100051.13;4382293;32;33899;-55
2022/01/21 00:54:51;;;;;;;8.63;3.22;;;;;;;2.90;54.81;100037.25;4379216;32;34903;-55
2022/01/21 00:57:19;;;;;;;7.65;2.60;;;;;;;2.70;54.96;100056.03;4388307;32;34282;-55
2022/01/21 00:59:46;;;;;;;7.10;2.60;;;;;;;2.74;54.46;100075.94;4390724;32;35604;-55
2022/01/21 01:02:14;;;;;;;8.05;2.90;;;;;;;2.85;54.40;100071.31;4382345;32;34344;-55
2022/01/21 01:04:44;;;;;;;7.62;2.75;;;;;;;2.83;54.36;100080.03;4390569;32;35536;-55
2022/01/21 01:07:11;;;;;;;7.35;2.30;;;;;;;2.94;53.95;100076.25;4389759;32;34908;-54
2022/01/21 01:09:38;;;;;;;6.37;2.28;;;;;;;2.53;55.34;100080.75;4389583;32;34074;-55
2022/01/21 01:12:23;;;;;;;7.25;2.50;;;;;;;2.59;55.09;100081.53;4388858;32;33246;-55
2022/01/21 01:20:23;;;;;;;6.40;1.50;;;;;;;2.45;54.83;100080.09;4390020;32;34196;-55
2022/01/21 01:23:00;;;;;;;5.78;1.85;;;;;;;2.17;55.96;100078.13;4381217;32;34828;-55
2022/01/21 01:28:13;;;;;;;6.03;1.42;;;;;;;2.20;55.73;100089.38;4373658;32;34019;-55
2022/01/21 01:30:41;;;;;;;4.68;1.60;;;;;;;2.21;55.69;100089.34;4375308;32;33723;-55
2022/01/21 01:33:12;;;;;;;6.25;1.58;;;;;;;2.24;55.66;100094.47;4375427;32;33363;-55
2022/01/21 01:35:42;;;;;;;4.12;1.83;;;;;;;2.30;55.38;100086.50;4374193;32;34635;-55
2022/01/21 01:38:29;;;;;;;4.80;1.40;;;;;;;1.94;56.58;100094.28;4374992;32;34092;-54
2022/01/21 01:41:03;;;;;;;5.72;1.58;;;;;;;2.25;55.78;100091.00;4382093;32;35068;-55
2022/01/21 01:51:34;;;;;;;6.37;1.60;;;;;;;2.03;57.17;100106.22;4390211;32;34207;-54
2022/01/21 01:54:09;;;;;;;5.82;1.30;;;;;;;2.17;57.22;100113.72;4387215;32;33596;-54
2022/01/21 01:56:44;;;;;;;5.20;1.40;;;;;;;2.08;57.54;100112.22;4390134;32;34702;-55
2022/01/21 01:59:11;;;;;;;6.72;1.87;;;;;;;1.83;58.81;100109.25;4389587;32;34692;-54
2022/01/21 02:01:39;;;;;;;4.32;1.45;;;;;;;2.02;58.69;100120.16;4388991;32;34217;-55
2022/01/21 02:04:06;;;;;;;;;;;;;;;2.07;58.50;100115.69;4389089;32;34285;-55
2022/01/21 02:06:34;;;;;;;6.70;1.80;;;;;;;1.95;59.67;100119.41;4388213;32;34505;-54
2022/01/21 02:09:01;;;;;;;7.18;1.70;;;;;;;1.86;59.74;100118.75;4386887;32;35545;-55
2022/01/21 02:11:29;;;;;;;5.43;1.70;;;;;;;1.98;59.53;100118.50;4373474;32;33799;-55
2022/01/21 02:14:00;;;;;;;4.57;1.40;;;;;;;1.85;60.09;100120.50;4383680;32;33868;-55
2022/01/21 02:21:45;;;;;;;4.72;1.48;;;;;;;2.15;59.59;100123.34;4375189;32;34183;-55
2022/01/21 02:24:17;;;;;;;9.68;1.70;;;;;;;2.31;59.16;100114.31;4373827;32;33462;-55
2022/01/21 02:26:46;;;;;;;5.60;1.67;;;;;;;2.07;59.91;100102.66;4375247;32;34872;-55
2022/01/21 02:29:25;;;;;;;6.40;1.50;;;;;;;2.13;59.98;100099.06;4360628;32;35168;-54
2022/01/21 02:31:54;;;;;;;5.05;1.40;;;;;;;2.11;59.93;100085.22;4386252;32;34764;-55
2022/01/21 02:34:21;;;;;;;6.25;1.77;;;;;;;2.32;58.84;100097.75;4387903;32;34007;-55
2022/01/21 02:36:49;;;;;;;5.60;1.80;;;;;;;2.27;59.03;100091.81;4388453;32;34604;-55
2022/01/21 02:39:17;;;;;;;5.12;1.52;;;;;;;2.19;59.38;100088.53;4389920;32;35025;-55
2022/01/21 02:41:44;;;;;;;5.37;1.70;;;;;;;2.31;58.97;100095.22;4387210;32;34093;-55
2022/01/21 02:44:15;;;;;;;6.37;1.60;;;;;;;2.12;59.09;100085.19;4388776;32;34510;-55
2022/01/21 02:46:46;;;;;;;5.65;1.40;;;;;;;2.20;58.85;100076.34;4390009;32;33716;-55
2022/01/21 02:49:14;;;;;;;5.15;1.65;;;;;;;2.13;59.24;100073.91;4388373;32;35340;-55
2022/01/21 02:51:42;;;;;;;6.95;1.62;;;;;;;2.35;58.28;100084.66;4380488;32;33943;-55
2022/01/21 02:54:09;;;;;;;6.57;2.10;;;;;;;1.93;59.68;100102.13;4379100;32;34403;-55
2022/01/21 02:56:38;;;;;;;5.07;1.58;;;;;;;1.73;60.52;100108.59;4385817;32;33679;-55
2022/01/21 02:59:07;;;;;;;5.57;1.60;;;;;;;1.78;60.20;100095.47;4373546;32;35268;-55
2022/01/21 03:01:36;;;;;;;5.55;1.85;;;;;;;1.74;60.12;100093.81;4374369;32;35091;-55
2022/01/21 03:04:06;;;;;;;5.90;1.80;;;;;;;1.97;59.62;100095.94;4375410;32;33675;-55
2022/01/21 03:06:36;;;;;;;5.15;1.70;;;;;;;2.10;59.41;100097.41;4374843;32;34330;-55
2022/01/21 03:09:06;;;;;;;4.75;1.80;;;;;;;2.09;59.54;100106.09;4389967;32;34610;-55
2022/01/21 03:11:34;;;;;;;6.47;2.08;;;;;;;1.93;59.73;100109.94;4374088;32;33794;-55
2022/01/21 03:14:01;;;;;;;6.85;2.10;;;;;;;1.76;60.29;100116.34;4374950;32;33533;-55
2022/01/21 03:16:29;;;;;;;8.10;2.30;;;;;;;1.57;61.07;100118.47;4374329;32;33924;-55
2022/01/21 03:18:57;;;;;;;8.63;2.28;;;;;;;1.79;60.34;100112.81;4387056;32;34578;-55
2022/01/21 03:21:24;;;;;;;6.60;2.30;;;;;;;1.68;60.54;100120.84;4389344;32;34032;-55
2022/01/21 03:23:53;;;;;;;;;;;;;;;1.55;61.12;100121.97;4388453;32;33539;-55
2022/01/21 03:26:23;;;;;;;5.97;2.00;;;;;;;1.67;60.81;100123.50;4389812;32;33610;-55
2022/01/21 03:28:54;;;;;;;5.80;2.25;;;;;;;1.69;60.78;100138.19;4373788;32;34226;-55
2022/01/21 03:31:22;;;;;;;8.20;2.75;;;;;;;1.38;61.73;100137.91;4374397;32;34689;-55
2022/01/21 03:33:52;;;;;;;5.65;2.20;;;;;;;1.42;61.57;100138.72;4388526;32;33669;-55
2022/01/21 03:36:20;;;;;;;8.05;2.30;;;;;;;1.30;61.84;100139.78;4388521;32;34751;-54
2022/01/21 03:38:48;;;;;;;;;;;;;;;1.41;61.57;100129.19;4376765;32;34627;-55
2022/01/21 03:41:15;;;;;;;6.40;2.10;;;;;;;1.51;60.54;100142.00;4372563;32;34613;-55
2022/01/21 03:43:42;;;;;;;5.80;2.00;;;;;;;1.61;60.53;100145.28;4385967;32;33203;-55
2022/01/21 03:46:11;;;;;;;4.93;1.83;;;;;;;1.53;60.26;100144.56;4387779;32;34091;-55
2022/01/21 03:48:39;;;;;;;5.68;1.90;;;;;;;1.43;60.50;100148.22;4387554;32;35225;-55
2022/01/21 03:51:06;;;;;;;5.15;1.80;;;;;;;1.33;60.53;100129.31;4388735;32;34198;-55
2022/01/21 03:53:34;;;;;;;5.45;1.80;;;;;;;1.38;60.33;100130.09;4387995;32;33740;-55
2022/01/21 03:56:01;;;;;;;6.28;1.80;;;;;;;1.70;58.82;100129.47;4389207;32;34003;-54
2022/01/21 03:58:29;;;;;;;6.45;2.00;;;;;;;1.26;60.16;100128.59;4386268;32;35158;-55
2022/01/21 04:00:57;;;;;;;4.78;1.80;;;;;;;1.35;59.71;100136.22;4384387;32;34057;-55
2022/01/21 04:03:26;;;;;;;6.32;1.87;;;;;;;1.33;59.40;100134.53;4372448;32;34271;-54
2022/01/21 04:05:54;;;;;;;5.72;2.00;;;;;;;1.57;58.53;100134.09;4374015;32;33541;-55
2022/01/21 04:08:22;;;;;;;6.82;1.80;;;;;;;1.25;58.88;100126.00;4374137;32;34964;-55
2022/01/21 04:10:51;;;;;;;5.32;1.83;;;;;;;1.37;58.35;100128.37;4378360;32;34753;-55
2022/01/21 04:13:21;;;;;;;6.28;1.92;;;;;;;1.42;57.66;100129.16;4373869;32;33739;-55
2022/01/21 04:15:51;;;;;;;5.03;1.85;;;;;;;1.35;57.27;100127.56;4372496;32;32941;-55
2022/01/21 04:18:19;;;;;;;7.45;2.15;;;;;;;1.17;57.64;100121.78;4374060;32;34165;-55
2022/01/21 04:20:49;;;;;;;5.47;2.17;;;;;;;1.29;56.82;100125.91;4372233;32;33789;-55
2022/01/21 04:23:18;;;;;;;7.90;2.78;;;;;;;1.08;56.90;100124.56;4388474;32;34253;-55
2022/01/21 04:25:46;;;;;;;6.70;2.75;;;;;;;1.04;56.98;100127.25;4388176;32;33595;-55
2022/01/21 04:28:14;;;;;;;8.88;2.30;;;;;;;1.13;56.74;100129.69;4387615;32;34489;-55
2022/01/21 04:30:43;;;;;;;6.10;1.98;;;;;;;1.22;56.28;100139.06;4378772;32;34936;-55
2022/01/21 04:33:11;;;;;;;7.57;2.35;;;;;;;0.89;57.37;100147.44;4385899;32;33290;-55
2022/01/21 04:35:40;;;;;;;7.35;2.35;;;;;;;0.80;57.25;100150.19;4390956;32;34041;-55
2022/01/21 04:38:10;;;;;;;8.57;2.53;;;;;;;0.93;57.34;100148.22;4389325;32;34494;-55
2022/01/21 04:40:52;;;;;;;6.60;2.70;;;;;;;0.89;56.77;100146.56;4380006;32;33417;-55
2022/01/21 04:48:52;;;;;;;6.78;1.92;;;;;;;0.79;56.74;100158.84;4364346;32;34255;-55
2022/01/21 04:51:26;;;;;;;6.97;2.10;;;;;;;0.76;56.83;100170.16;4375184;32;33795;-55
2022/01/21 04:53:55;;;;;;;8.48;2.85;;;;;;;0.67;56.88;100172.87;4387595;32;34474;-55
2022/01/21 04:56:23;;;;;;;7.43;2.45;;;;;;;0.78;56.62;100175.34;4390740;32;33659;-55
2022/01/21 04:58:50;;;;;;;;;;;;;;;0.87;56.49;100174.31;4387731;32;34061;-55
2022/01/21 05:01:18;;;;;;;8.77;2.67;;;;;;;0.98;55.99;100175.87;4390467;32;34333;-55
2022/01/21 05:03:46;;;;;;;8.52;2.28;;;;;;;0.93;56.30;100185.50;4388737;32;33270;-55
2022/01/21 05:06:14;;;;;;;9.73;2.78;;;;;;;0.94;56.14;100188.94;4390385;32;33879;-55
2022/01/21 05:08:47;;;;;;;11.68;3.50;;;;;;;0.77;56.62;100187.44;4388418;32;35245;-55
2022/01/21 05:11:17;;;;;;;9.07;2.60;;;;;;;0.79;56.42;100187.44;4389542;32;34287;-55
2022/01/21 05:13:54;;;;;;;10.98;3.40;;;;;;;0.63;56.87;100184.22;4390286;32;33241;-55
2022/01/21 05:18:55;;;;;;;;;;;;;;;0.84;55.90;100190.84;4389482;32;35019;-55
2022/01/21 05:21:23;;;;;;;5.85;2.30;;;;;;;0.70;56.09;100190.16;4384653;32;34511;-55
2022/01/21 05:23:51;;;;;;;7.57;3.12;;;;;;;0.58;56.45;100196.41;4375769;32;33382;-55
2022/01/21 05:26:19;;;;;;;8.23;3.00;;;;;;;0.55;56.47;100196.47;4383952;32;34355;-55
2022/01/21 05:28:46;;;;;;;;;;;;;;;0.75;55.46;100209.16;4374950;32;35328;-55
2022/01/21 05:31:14;;;;;;;6.68;2.50;;;;;;;0.75;55.60;100217.81;4376210;32;34100;-55
2022/01/21 05:33:41;;;;;;;;;;;;;;;0.80;55.21;100219.50;4386407;32;33244;-55
2022/01/21 05:36:10;;;;;;;6.25;2.30;;;;;;;0.83;55.37;100216.84;4389721;32;35357;-55
2022/01/21 05:38:37;;;;;;;7.57;2.70;;;;;;;0.92;54.98;100212.38;4388233;32;35290;-55
2022/01/21 05:41:05;;;;;;;;;;;;;;;0.70;55.94;100210.97;4385592;32;32962;-55
2022/01/21 05:43:34;;;;;;;6.82;2.40;;;;;;;0.99;55.05;100213.16;4377590;32;33179;-55
2022/01/21 05:46:54;;;;;;;8.02;2.72;;;;;;;0.72;55.76;100206.63;4373653;32;33428;-55
2022/01/21 05:48:57;;;;;;;6.55;2.78;;;;;;;0.55;56.37;100217.25;4373032;32;35191;-55
2022/01/21 05:51:27;;;;;;;8.27;2.78;;;;;;;0.60;56.29;100215.44;4379977;32;33778;-55
2022/01/21 05:53:54;;;;;;;7.32;2.70;;;;;;;0.69;55.89;100230.06;4375781;32;33572;-55
2022/01/21 05:56:24;;;;;;;8.35;2.67;;;;;;;0.56;56.23;100235.44;4375356;32;34049;-55
2022/01/21 05:58:52;;;;;;;9.35;2.95;;;;;;;0.72;56.01;100237.81;4383931;32;34255;-55
2022/01/21 06:01:20;;;;;;;8.20;3.10;;;;;;;0.44;56.37;100245.97;4389870;32;33823;-55
2022/01/21 06:03:49;;;;;;;6.37;2.40;;;;;;;0.24;57.15;100258.38;4382501;32;33765;-55
2022/01/21 06:06:16;;;;;;;8.15;2.95;;;;;;;0.50;56.57;100264.06;4378065;32;33990;-55
2022/01/21 06:08:44;;;;;;;9.25;3.25;;;;;;;0.48;56.40;100268.44;4381010;32;34342;-56
2022/01/21 06:11:11;;;;;;;9.55;4.10;;;;;;;0.73;55.61;100271.56;4384454;32;33856;-56
2022/01/21 06:13:39;;;;;;;8.23;4.18;;;;;;;0.53;56.03;100283.97;4396555;32;33603;-55
2022/01/21 06:16:06;;;;;;;13.20;6.75;;;;;;;0.53;56.12;100291.78;4383485;32;33659;-56
2022/01/21 06:18:34;;;;;;;9.65;3.70;;;;;;;0.35;56.85;100298.03;4374956;32;35682;-55
2022/01/21 06:21:01;;;;;;;9.52;3.53;;;;;;;0.32;56.85;100309.34;4373558;32;34265;-56
2022/01/21 06:23:29;;;;;;;8.57;3.58;;;;;;;0.58;56.00;100310.75;4374808;32;33585;-55
2022/01/21 06:25:56;;;;;;;10.52;3.60;;;;;;;0.38;56.79;100322.25;4373401;32;33997;-55
2022/01/21 06:28:24;;;;;;;9.35;3.80;;;;;;;0.42;56.48;100328.28;4375262;32;34616;-55
2022/01/21 06:30:52;;;;;;;7.70;3.47;;;;;;;0.54;56.39;100335.06;4388594;32;34546;-55
2022/01/21 06:33:20;;;;;;;10.57;3.72;;;;;;;0.53;56.35;100329.00;4403246;32;33739;-55
2022/01/21 06:35:52;;;;;;;10.30;3.95;;;;;;;0.74;55.64;100345.25;4394484;32;33608;-53
2022/01/21 06:38:20;;;;;;;8.18;3.85;;;;;;;0.49;56.34;100345.53;4387466;32;35573;-53
2022/01/21 06:40:49;;;;;;;8.60;3.80;;;;;;;0.40;56.78;100343.03;4385340;32;34731;-53
2022/01/21 06:43:17;;;;;;;9.07;3.55;;;;;;;0.38;56.92;100348.22;4386885;32;33716;-53
2022/01/21 06:45:44;;;;;;;8.52;4.28;;;;;;;0.54;56.31;100346.34;4389321;32;34014;-53
2022/01/21 06:48:12;;;;;;;11.82;4.22;;;;;;;0.36;56.80;100349.13;4378048;32;34258;-52
2022/01/21 06:50:42;;;;;;;11.73;4.00;;;;;;;0.27;57.08;100357.00;4373495;32;34221;-52
2022/01/21 06:53:09;;;;;;;8.13;3.60;;;;;;;0.50;61.20;100352.44;4374303;32;33764;-53
2022/01/21 06:55:37;;;;;;;;;;;;;;;0.53;56.24;100359.34;4379322;32;34108;-53
2022/01/21 06:58:05;;;;;;;8.57;3.20;;;;;;;0.42;56.17;100367.25;4374493;32;34662;-53
2022/01/21 07:00:33;;;;;;;9.25;2.87;;;;;;;0.12;57.34;100373.63;4376319;32;33733;-53
2022/01/21 07:03:00;;;;;;;7.05;2.42;;;;;;;0.09;57.01;100382.28;4388619;32;33728;-53
2022/01/21 07:05:29;;;;;;;9.27;3.15;;;;;;;0.28;56.38;100382.97;4385808;32;34038;-53
2022/01/21 07:07:58;;;;;;;7.30;3.20;;;;;;;0.30;56.36;100390.78;4387395;32;34235;-53
2022/01/21 07:10:27;;;;;;;9.00;2.85;;;;;;;0.29;56.24;100392.50;4389462;32;34134;-52
2022/01/21 07:12:54;;;;;;;10.15;3.25;;;;;;;0.52;56.10;100402.63;4386687;32;34469;-53
2022/01/21 07:15:22;;;;;;;9.77;4.05;;;;;;;0.48;55.91;100413.94;4374651;32;33991;-53
2022/01/21 07:17:52;;;;;;;;;;;;;;;0.37;56.12;100415.81;4388075;32;35687;-53
2022/01/21 07:20:20;;;;;;;8.88;2.92;;;;;;;0.29;56.60;100415.00;4388979;32;34352;-53
2022/01/21 07:22:47;;;;;;;11.80;4.60;;;;;;;0.43;55.72;100418.34;4385218;32;34261;-53
2022/01/21 07:25:15;;;;;;;10.15;3.72;;;;;;;0.68;54.98;100420.66;4382319;32;33756;-53
2022/01/21 07:27:47;;;;;;;10.63;2.92;;;;;;;0.82;54.00;100423.13;4389462;32;34050;-52
2022/01/21 07:30:15;;;;;;;7.07;2.62;;;;;;;0.67;53.98;100424.16;4385060;32;34981;-53
2022/01/21 07:32:43;;;;;;;9.05;2.80;;;;;;;0.63;54.26;100427.69;4389335;32;33501;-53
2022/01/21 07:35:11;;;;;;;8.98;2.92;;;;;;;0.63;54.42;100423.34;4388390;32;34004;-53
2022/01/21 07:37:59;;;;;;;8.50;2.53;;;;;;;0.91;53.67;100415.22;4377078;32;34408;-53
2022/01/21 07:40:27;;;;;;;9.02;3.30;;;;;;;1.06;53.03;100419.38;4383146;32;34869;-53
2022/01/21 07:42:54;;;;;;;;;;;;;;;0.75;53.94;100407.59;4372922;32;34568;-53
2022/01/21 07:45:22;;;;;;;8.60;2.85;;;;;;;0.92;53.52;100403.94;4374900;32;34262;-53
2022/01/21 07:47:49;;;;;;;8.38;2.50;;;;;;;0.90;53.68;100400.50;4372579;32;34298;-53
2022/01/21 07:50:17;;;;;;;9.07;2.62;;;;;;;0.63;53.15;100402.53;4373858;32;34310;-53
2022/01/21 07:52:44;;;;;;;8.02;2.40;;;;;;;0.69;52.85;100396.41;4373743;32;34734;-53
2022/01/21 07:55:13;;;;;;;8.90;2.80;;;;;;;0.87;52.26;100398.78;4373876;32;34045;-53
2022/01/21 07:57:46;;;;;;;9.93;3.00;;;;;;;0.79;52.65;100400.63;4373893;32;35483;-52
2022/01/21 08:00:14;;;;;;;7.60;2.72;;;;;;;0.95;52.02;100401.28;4373413;32;33958;-53
2022/01/21 08:02:41;;;;;;;9.50;2.90;;;;;;;1.11;51.94;100408.03;4388473;32;33718;-53
2022/01/21 08:05:10;;;;;;;12.43;3.53;;;;;;;0.89;51.52;100410.06;4386752;32;33556;-53
2022/01/21 08:07:37;;;;;;;11.23;3.42;;;;;;;0.90;51.34;100416.94;4387267;32;34725;-53
2022/01/21 08:10:05;;;;;;;11.38;5.25;;;;;;;0.78;51.21;100411.91;4382978;32;33686;-53
2022/01/21 08:12:32;;;;;;;;;;;;;;;0.71;51.70;100421.50;4387004;32;34594;-53
2022/01/21 08:15:00;;;;;;;7.87;2.42;;;;;;;0.65;51.92;100415.53;4375631;32;34787;-53
2022/01/21 08:17:29;;;;;;;8.18;2.83;;;;;;;0.97;51.25;100429.00;4374784;32;35183;-53
2022/01/21 08:19:58;;;;;;;7.35;2.47;;;;;;;0.90;51.04;100405.69;4375701;32;36258;-53
2022/01/21 08:22:26;;;;;;;9.02;3.50;;;;;;;0.91;51.56;100405.69;4375127;32;33731;-53
2022/01/21 08:24:54;;;;;;;12.00;3.03;;;;;;;0.76;51.61;100387.66;4378668;32;34706;-53
2022/01/21 08:27:22;;;;;;;11.27;2.95;;;;;;;0.84;51.36;100375.44;4375994;32;35317;-53
2022/01/21 08:29:50;;;;;;;10.18;3.40;;;;;;;0.72;51.58;100379.03;4374452;32;34148;-53
2022/01/21 08:32:20;;;;;;;9.38;3.35;;;;;;;0.86;50.96;100384.06;4376014;32;33705;-53
2022/01/21 08:34:49;;;;;;;9.20;3.55;;;;;;;0.80;51.24;100391.94;4374002;32;33720;-53
2022/01/21 08:37:17;;;;;;;10.57;2.80;;;;;;;0.97;50.36;100384.81;4386952;32;34001;-53
2022/01/21 08:39:44;;;;;;;10.15;2.90;;;;;;;0.89;50.59;100401.38;4376327;32;33950;-53
2022/01/21 08:42:12;;;;;;;8.50;2.78;;;;;;;0.83;50.76;100388.44;4375094;32;33679;-53
2022/01/21 08:44:39;;;;;;;10.32;3.47;;;;;;;0.78;50.63;100396.31;4375073;32;33944;-53
2022/01/21 08:47:07;;;;;;;7.32;2.25;;;;;;;0.99;50.63;100392.59;4383510;32;35169;-53
2022/01/21 08:49:39;;;;;;;7.72;3.00;;;;;;;1.05;50.12;100412.44;4389113;32;33800;-53
2022/01/21 08:52:07;;;;;;;11.00;3.10;;;;;;;1.01;50.48;100411.62;4389244;32;33292;-53
2022/01/21 08:54:34;;;;;;;8.23;3.12;;;;;;;1.13;50.42;100418.41;4377186;32;33618;-53
2022/01/21 08:57:02;;;;;;;9.38;3.53;;;;;;;1.26;49.95;100427.78;4380804;32;35370;-53
2022/01/21 08:59:31;;;;;;;11.57;3.03;;;;;;;1.22;49.81;100433.87;4396203;32;34247;-53
2022/01/21 09:01:59;;;;;;;9.18;2.87;;;;;;;1.19;49.41;100441.75;4378023;32;34500;-53
2022/01/21 09:04:27;;;;;;;7.82;2.65;;;;;;;1.31;48.94;100454.59;4379565;32;33801;-53
2022/01/21 09:06:54;;;;;;;;;;;;;;;1.49;48.74;100456.09;4377534;32;34982;-54
2022/01/21 09:09:22;;;;;;;7.30;1.95;;;;;;;1.42;47.93;100458.81;4386590;32;35063;-54
2022/01/21 09:11:50;;;;;;;8.18;2.70;;;;;;;1.39;48.11;100449.28;4375461;32;33502;-54
2022/01/21 09:14:17;;;;;;;;;;;;;;;1.42;48.43;100464.03;4383335;32;34212;-54
2022/01/21 09:16:45;;;;;;;7.35;2.03;;;;;;;1.34;48.65;100456.31;4376267;32;34661;-53
2022/01/21 09:19:13;;;;;;;;;;;;;;;1.07;48.65;100460.13;4376393;32;35119;-53
2022/01/21 09:21:42;;;;;;;8.05;2.15;;;;;;;1.35;48.47;100458.00;4373525;32;33277;-53
2022/01/21 09:24:09;;;;;;;8.13;2.55;;;;;;;1.21;48.70;100458.19;4377845;32;33569;-53
2022/01/21 09:26:37;;;;;;;6.75;2.30;;;;;;;1.53;48.54;100467.31;4376895;32;34045;-53
2022/01/21 09:29:05;;;;;;;7.18;1.83;;;;;;;1.56;48.78;100477.69;4374911;32;33808;-53
2022/01/21 09:31:34;;;;;;;8.60;2.50;;;;;;;1.53;47.60;100475.13;4374789;32;33310;-53
2022/01/21 09:34:25;;;;;;;9.20;2.22;;;;;;;1.44;48.10;100485.69;4386176;32;34006;-53
2022/01/21 09:36:55;;;;;;;6.25;2.12;;;;;;;1.54;47.64;100482.91;4389244;32;34653;-53
2022/01/21 09:39:23;;;;;;;17.08;8.65;;;;;;;1.83;47.71;100481.66;4379125;32;34188;-53
2022/01/21 09:41:53;;;;;;;8.50;2.67;;;;;;;1.69;48.14;100481.00;4375155;32;33302;-53
2022/01/21 09:44:22;;;;;;;10.10;4.00;;;;;;;1.88;48.00;100476.34;4374074;32;33019;-53
2022/01/21 09:46:51;;;;;;;10.18;2.62;;;;;;;2.14;66.12;100483.78;4383376;32;34218;-55
2022/01/21 09:49:28;;;;;;;9.13;2.70;;;;;;;2.67;57.14;100484.59;4375318;32;34582;-55
2022/01/21 09:52:02;;;;;;;7.23;2.23;;;;;;;2.56;47.21;100476.12;4373362;32;34859;-55
2022/01/21 09:54:36;;;;;;;6.45;2.20;;;;;;;2.22;47.10;100478.44;4376096;32;33831;-54
2022/01/21 09:57:06;;;;;;;8.40;2.60;;;;;;;2.53;50.54;100477.03;4385483;32;35189;-54
2022/01/21 09:59:35;;;;;;;7.85;2.60;;;;;;;2.51;46.59;100484.03;4389814;32;35142;-55
2022/01/21 10:02:05;;;;;;;9.93;2.55;;;;;;;2.31;47.44;100481.78;4388908;32;33172;-54
2022/01/21 10:04:37;;;;;;;8.27;2.70;;;;;;;2.37;47.14;100473.00;4388598;32;34542;-54
2022/01/21 10:07:05;;;;;;;35.85;19.65;;;;;;;2.29;46.98;100467.91;4389900;32;33485;-55
2022/01/21 10:09:32;;;;;;;;;;;;;;;2.19;47.27;100461.13;4388386;32;34535;-55
2022/01/21 10:12:01;;;;;;;12.85;3.10;;;;;;;2.30;47.18;100468.75;4389546;32;33661;-55
2022/01/21 10:14:30;;;;;;;9.20;3.37;;;;;;;1.99;48.23;100466.66;4388376;32;33982;-55
2022/01/21 10:17:00;;;;;;;8.55;2.97;;;;;;;2.23;47.96;100469.72;4389618;32;34429;-55
2022/01/21 10:19:33;;;;;;;11.93;3.90;;;;;;;2.11;48.74;100466.47;4389264;32;33888;-55
2022/01/21 10:22:08;;;;;;;13.60;5.50;;;;;;;2.17;48.23;100468.09;4388407;32;33761;-55
2022/01/21 10:24:50;;;;;;;10.88;4.03;;;;;;;2.52;47.48;100475.34;4389446;32;33865;-54
2022/01/21 10:27:30;;;;;;;9.30;3.60;;;;;;;2.64;47.45;100469.03;4388036;32;34974;-54
2022/01/21 10:29:59;;;;;;;11.32;3.20;;;;;;;2.80;47.26;100469.59;4383241;32;34040;-55
2022/01/21 10:32:33;;;;;;;8.75;3.05;;;;;;;2.76;47.24;100476.63;4383255;32;33713;-55
2022/01/21 10:35:34;;;;;;;10.52;3.45;;;;;;;2.71;47.42;100462.78;4373277;32;33470;-55
2022/01/21 10:38:24;;;;;;;10.30;2.87;;;;;;;2.59;47.29;100467.41;4374215;32;35169;-55
2022/01/21 10:40:52;;;;;;;9.77;3.25;;;;;;;2.41;47.99;100469.44;4389268;32;34660;-55
2022/01/21 10:43:21;;;;;;;9.25;2.80;;;;;;;2.81;47.01;100473.06;4374712;32;33779;-55
2022/01/21 10:45:57;;;;;;;10.18;2.90;;;;;;;2.70;47.25;100466.31;4374340;32;33572;-55
2022/01/21 10:48:28;;;;;;;9.68;3.00;;;;;;;2.66;51.30;100472.47;4375147;32;34675;-55
2022/01/21 10:51:24;;;;;;;8.73;3.05;;;;;;;2.82;47.44;100474.78;4374480;32;33874;-55
2022/01/21 10:53:53;;;;;;;7.78;2.92;;;;;;;2.54;47.88;100468.34;4373384;32;34228;-55
2022/01/21 10:56:21;;;;;;;8.38;3.10;;;;;;;2.37;48.49;100478.19;4372683;32;34750;-55
2022/01/21 10:58:52;;;;;;;9.43;3.53;;;;;;;2.40;48.90;100479.88;4373917;32;35407;-55
2022/01/21 11:01:23;;;;;;;10.38;3.50;;;;;;;2.48;48.56;100480.59;4372334;32;33666;-55
2022/01/21 11:04:17;;;;;;;11.50;3.17;;;;;;;2.46;48.40;100480.66;4389248;32;33365;-53
2022/01/21 11:06:56;;;;;;;11.88;4.15;;;;;;;2.54;48.35;100478.78;4372995;32;33571;-54
2022/01/21 11:09:30;;;;;;;9.40;3.40;;;;;;;2.61;48.53;100473.44;4387368;32;35496;-54
2022/01/21 11:12:13;;;;;;;11.57;4.53;;;;;;;2.53;48.67;100474.44;4388880;32;34194;-53
2022/01/21 11:15:05;;;;;;;10.75;3.60;;;;;;;2.60;48.51;100474.31;4387235;32;34578;-54
2022/01/21 11:17:35;;;;;;;12.35;3.60;;;;;;;2.44;48.60;100461.53;4388313;32;33987;-53
2022/01/21 11:20:16;;;;;;;12.73;3.90;;;;;;;2.30;49.08;100471.34;4389080;32;34594;-53
2022/01/21 11:22:55;;;;;;;13.95;4.00;;;;;;;2.10;49.86;100467.34;4374701;32;34041;-53
2022/01/21 11:25:41;;;;;;;12.05;5.03;;;;;;;2.24;49.15;100458.44;4374343;32;33656;-55
2022/01/21 11:28:10;;;;;;;12.70;5.62;;;;;;;2.19;49.49;100452.44;4372695;32;32628;-56
2022/01/21 11:30:38;;;;;;;9.00;3.47;;;;;;;2.18;49.67;100454.19;4372340;32;34525;-55
2022/01/21 11:33:06;;;;;;;9.82;3.40;;;;;;;2.37;48.83;100434.75;4374021;32;33897;-55
2022/01/21 11:35:33;;;;;;;;;;;;;;;2.47;48.33;100429.38;4383203;32;33710;-55
2022/01/21 11:38:11;;;;;;;8.52;3.15;;;;;;;2.42;48.37;100423.37;4374346;32;34964;-55
2022/01/21 11:40:40;;;;;;;;;;;;;;;2.34;48.54;100426.13;4386736;32;34251;-55
2022/01/21 11:43:09;;;;;;;12.70;4.00;;;;;;;2.45;48.05;100421.56;4388575;32;34275;-56
2022/01/21 11:51:21;;;;;;;12.98;5.97;;;;;;;2.29;47.94;100379.28;4361305;32;34092;-55
2022/01/21 11:53:51;;;;;;;9.65;2.97;;;;;;;2.01;48.65;100370.25;4385989;32;33847;-55
2022/01/21 11:56:42;;;;;;;12.20;4.40;;;;;;;2.34;47.55;100361.81;4372936;32;33811;-56
2022/01/21 11:59:11;;;;;;;10.77;3.17;;;;;;;2.27;47.65;100368.03;4372769;32;34790;-55
2022/01/21 12:01:48;;;;;;;7.93;2.85;;;;;;;2.23;47.31;100373.31;4374194;32;34142;-55
2022/01/21 12:04:43;;;;;;;10.50;2.87;;;;;;;2.13;47.64;100359.59;4387080;32;33385;-56
2022/01/21 12:07:44;;;;;;;9.20;3.50;;;;;;;2.11;47.89;100346.63;4387113;32;34513;-55
2022/01/21 12:10:23;;;;;;;8.30;3.08;;;;;;;2.36;47.63;100356.56;4386685;32;34731;-55
2022/01/21 12:15:32;;;;;;;9.63;2.45;;;;;;;2.66;46.85;100346.44;4384987;32;33749;-55
2022/01/21 12:20:57;;;;;;;11.40;3.78;;;;;;;2.70;46.27;100350.72;4387577;32;34521;-55
2022/01/21 12:23:26;;;;;;;8.13;2.70;;;;;;;2.86;46.19;100343.41;4386671;32;34079;-55
2022/01/21 12:26:17;;;;;;;10.90;3.33;;;;;;;2.95;46.33;100357.12;4386452;32;34630;-56
2022/01/21 12:28:52;;;;;;;9.18;2.37;;;;;;;2.93;46.07;100331.97;4387269;32;33388;-55
2022/01/21 12:31:21;;;;;;;9.48;2.70;;;;;;;2.80;45.60;100333.97;4386698;32;34530;-54
2022/01/21 12:34:03;;;;;;;9.77;2.45;;;;;;;2.85;45.96;100337.34;4380421;32;34999;-54
2022/01/21 12:36:36;;;;;;;7.68;2.20;;;;;;;2.84;45.49;100330.41;4376743;32;33928;-55
2022/01/21 12:39:35;;;;;;;10.75;2.90;;;;;;;3.06;45.11;100346.44;4387618;32;33156;-55
2022/01/21 12:42:21;;;;;;;16.77;8.05;;;;;;;3.14;45.65;100334.09;4387843;32;34060;-55
2022/01/21 12:44:52;;;;;;;12.45;2.87;;;;;;;2.99;45.47;100333.59;4374183;32;34137;-55
2022/01/21 12:47:43;;;;;;;11.07;2.67;;;;;;;2.97;45.81;100336.22;4387263;32;34309;-55